Time;durP1;ratioP1;P1;durP2;ratioP2;P2;SDS_P1;SDS_P2;PMS_P1;PMS_P2;Temp;Humidity;BMP_temperature;BMP_pressure;BME280_temperature;BME280_humidity;BME280_pressure;Samples;Min_cycle;Max_cycle;Signal;HPM_P1;HPM_P2
2022/07/03 00:02:13;;;;;;;10.35;4.78;;;21.80;99.90;;;;;;5112605;27;20045;-71
2022/07/03 00:04:39;;;;;;;8.23;4.70;;;20.90;99.90;;;;;;5126078;27;20102;-71
2022/07/03 00:07:05;;;;;;;11.63;4.80;;;21.70;99.90;;;;;;5132847;27;20090;-71
2022/07/03 00:09:31;;;;;;;7.38;4.40;;;21.80;99.90;;;;;;5119995;27;20111;-71
2022/07/03 00:11:57;;;;;;;6.85;4.15;;;21.70;99.90;;;;;;5112645;28;20033;-71
2022/07/03 00:14:24;;;;;;;10.73;5.07;;;21.70;99.90;;;;;;5129301;27;20037;-73
2022/07/03 00:16:50;;;;;;;5.80;3.83;;;21.70;99.90;;;;;;5132935;27;20043;-72
2022/07/03 00:19:15;;;;;;;8.18;4.18;;;21.70;99.90;;;;;;5119265;27;20061;-72
2022/07/03 00:21:52;;;;;;;6.93;4.15;;;21.70;99.90;;;;;;5133137;27;20023;-72
2022/07/03 00:24:20;;;;;;;6.28;3.95;;;21.60;99.90;;;;;;5132837;27;20035;-73
2022/07/03 00:26:51;;;;;;;8.77;4.57;;;21.60;99.90;;;;;;5127776;27;20023;-72
2022/07/03 00:29:19;;;;;;;6.35;3.83;;;21.60;99.90;;;;;;5132950;27;20058;-71
2022/07/03 00:31:47;;;;;;;7.13;4.22;;;21.60;99.90;;;;;;5123488;27;20035;-72
2022/07/03 00:34:16;;;;;;;8.82;4.70;;;21.70;99.90;;;;;;5130080;27;20015;-72
2022/07/03 00:36:47;;;;;;;17.50;4.05;;;21.60;99.90;;;;;;5132821;27;20038;-72
2022/07/03 00:39:13;;;;;;;7.85;3.60;;;21.50;99.90;;;;;;5132615;27;20027;-71
2022/07/03 00:41:40;;;;;;;7.13;3.95;;;21.50;99.90;;;;;;5132000;27;20104;-72
2022/07/03 00:44:06;;;;;;;12.70;5.18;;;22.00;99.90;;;;;;5123068;27;20034;-72
2022/07/03 00:46:36;;;;;;;8.35;4.15;;;21.60;99.90;;;;;;5127880;27;20019;-71
2022/07/03 00:49:05;;;;;;;7.03;4.03;;;21.70;99.90;;;;;;5131923;27;20385;-72
2022/07/03 00:51:37;;;;;;;9.48;4.78;;;21.50;99.90;;;;;;5130142;27;20058;-71
2022/07/03 00:54:03;;;;;;;5.88;3.67;;;21.60;99.90;;;;;;5132144;27;20452;-72
2022/07/03 00:56:31;;;;;;;7.68;3.55;;;21.60;99.90;;;;;;5132021;27;20031;-71
2022/07/03 00:59:05;;;;;;;7.00;4.05;;;21.60;99.90;;;;;;5132043;27;20034;-72
2022/07/03 01:01:37;;;;;;;6.88;3.80;;;21.50;99.90;;;;;;5131743;27;20024;-71
2022/07/03 01:04:11;;;;;;;11.57;3.78;;;21.60;99.90;;;;;;5132036;27;20030;-72
2022/07/03 01:07:06;;;;;;;11.35;4.35;;;21.50;99.90;;;;;;5131701;27;20029;-73
2022/07/03 01:09:47;;;;;;;6.32;4.50;;;21.60;99.90;;;;;;5124317;27;20445;-71
2022/07/03 01:12:26;;;;;;;9.68;4.55;;;21.50;99.90;;;;;;5123236;27;20122;-72
2022/07/03 01:15:11;;;;;;;6.68;4.07;;;21.50;99.90;;;;;;5132031;27;20031;-72
2022/07/03 01:17:56;;;;;;;7.75;4.53;;;21.60;99.90;;;;;;5132190;27;20070;-71
2022/07/03 01:20:28;;;;;;;5.97;3.90;;;21.50;99.90;;;;;;5132289;27;20110;-72
2022/07/03 01:22:58;;;;;;;8.40;4.22;;;21.50;99.90;;;;;;5132308;27;20105;-67
2022/07/03 01:25:36;;;;;;;8.45;4.38;;;21.50;99.90;;;;;;5131873;27;20021;-72
2022/07/03 01:28:12;;;;;;;6.45;3.97;;;21.50;99.90;;;;;;5131492;27;20054;-72
2022/07/03 01:30:45;;;;;;;8.10;4.20;;;21.50;99.90;;;;;;5131896;27;20088;-72
2022/07/03 01:33:20;;;;;;;9.38;4.55;;;21.50;99.90;;;;;;5131835;28;20031;-69
2022/07/03 01:35:51;;;;;;;6.80;4.07;;;21.50;99.90;;;;;;5131337;28;20069;-73
2022/07/03 01:38:20;;;;;;;7.07;4.03;;;21.50;99.90;;;;;;5130836;28;20080;-70
2022/07/03 01:40:50;;;;;;;11.30;4.10;;;21.50;99.90;;;;;;5131644;27;20134;-70
2022/07/03 01:43:21;;;;;;;10.85;4.28;;;21.50;99.90;;;;;;5129305;27;20106;-69
2022/07/03 01:45:50;;;;;;;7.78;4.25;;;21.50;99.90;;;;;;5119388;28;20038;-61
2022/07/03 01:48:17;;;;;;;7.40;3.83;;;21.50;99.90;;;;;;5126826;28;20073;-70
2022/07/03 01:50:46;;;;;;;8.68;4.45;;;21.50;99.90;;;;;;5131278;27;20035;-71
2022/07/03 01:53:12;;;;;;;6.07;3.90;;;21.30;99.90;;;;;;5125168;27;20011;-71
2022/07/03 01:55:41;;;;;;;9.10;4.47;;;21.20;99.90;;;;;;5129037;28;20043;-70
2022/07/03 01:58:08;;;;;;;8.05;4.18;;;21.10;99.90;;;;;;5131461;27;20379;-71
2022/07/03 02:01:01;;;;;;;9.65;4.65;;;21.10;99.90;;;;;;5131421;27;20381;-70
2022/07/03 02:03:30;;;;;;;8.25;4.07;;;21.20;99.90;;;;;;5069000;28;20079;-70
2022/07/03 02:06:28;;;;;;;6.88;4.32;;;21.10;99.90;;;;;;5068692;28;20124;-72
2022/07/03 02:09:05;;;;;;;6.07;3.80;;;21.10;99.90;;;;;;5062170;28;20106;-70
2022/07/03 02:11:44;;;;;;;8.30;4.30;;;21.10;99.90;;;;;;5068134;28;20036;-65
2022/07/03 02:14:20;;;;;;;5.65;3.65;;;21.10;99.90;;;;;;5071518;28;20029;-70
2022/07/03 02:16:54;;;;;;;6.80;3.75;;;21.10;99.90;;;;;;5071829;28;20119;-72
2022/07/03 02:19:25;;;;;;;7.35;3.42;;;21.10;99.90;;;;;;5071825;28;20060;-72
2022/07/03 02:21:54;;;;;;;9.57;3.97;;;21.10;99.90;;;;;;5071338;28;20078;-71
2022/07/03 02:24:22;;;;;;;7.85;3.95;;;21.00;99.90;;;;;;5071657;28;20419;-71
2022/07/03 02:27:03;;;;;;;7.35;4.22;;;21.10;99.90;;;;;;5071336;28;20036;-70
2022/07/03 02:29:49;;;;;;;8.73;4.60;;;21.10;99.90;;;;;;5071181;28;20082;-71
2022/07/03 02:32:21;;;;;;;7.35;4.40;;;21.10;99.90;;;;;;5071964;28;20410;-72
2022/07/03 02:34:55;;;;;;;5.60;3.97;;;21.10;99.90;;;;;;5071435;28;20218;-70
2022/07/03 02:37:23;;;;;;;6.97;4.22;;;21.10;99.90;;;;;;5071370;28;20127;-71
2022/07/03 02:40:02;;;;;;;10.07;4.50;;;21.00;99.90;;;;;;5087382;27;20035;-71
2022/07/03 02:42:37;;;;;;;10.30;5.05;;;21.10;99.90;;;;;;5121328;27;20431;-68
2022/07/03 02:45:05;;;;;;;10.30;5.28;;;21.10;99.90;;;;;;5120757;27;20019;-72
2022/07/03 02:47:41;;;;;;;8.55;4.35;;;21.10;99.90;;;;;;5134628;27;20027;-71
2022/07/03 02:50:10;;;;;;;5.57;4.30;;;21.10;99.90;;;;;;5134108;27;20027;-71
2022/07/03 02:52:54;;;;;;;8.60;4.05;;;21.10;99.90;;;;;;5134308;27;20504;-72
2022/07/03 02:55:42;;;;;;;8.80;4.60;;;21.20;99.90;;;;;;5134345;27;20019;-71
2022/07/03 02:58:29;;;;;;;10.60;5.18;;;21.10;99.90;;;;;;5134018;27;20038;-72
2022/07/03 03:01:24;;;;;;;8.93;4.72;;;21.10;99.90;;;;;;5130216;27;20212;-70
2022/07/03 03:04:17;;;;;;;10.85;4.90;;;21.00;99.90;;;;;;5132339;27;20019;-70
2022/07/03 03:07:05;;;;;;;9.00;4.82;;;21.00;99.90;;;;;;5133675;27;20428;-71
2022/07/03 03:09:43;;;;;;;7.60;4.78;;;21.00;99.90;;;;;;5130276;27;20039;-72
2022/07/03 03:12:10;;;;;;;6.78;4.05;;;21.10;99.90;;;;;;5132598;27;20464;-68
2022/07/03 03:14:42;;;;;;;11.73;5.07;;;21.00;99.90;;;;;;5132939;27;20473;-72
2022/07/03 03:17:23;;;;;;;8.20;4.35;;;21.00;99.90;;;;;;5133695;27;20037;-71
2022/07/03 03:19:55;;;;;;;9.10;4.57;;;21.00;99.90;;;;;;5133417;27;20037;-71
2022/07/03 03:22:52;;;;;;;11.57;4.85;;;21.10;99.90;;;;;;5133150;27;20529;-69
2022/07/03 03:25:18;;;;;;;6.88;4.30;;;21.10;99.90;;;;;;5133753;27;20541;-71
2022/07/03 03:27:44;;;;;;;10.88;5.03;;;21.20;99.90;;;;;;5133227;27;20109;-62
2022/07/03 03:30:10;;;;;;;13.30;4.82;;;21.30;99.90;;;;;;5133470;27;20450;-71
2022/07/03 03:32:37;;;;;;;7.40;4.32;;;21.30;99.90;;;;;;5132691;27;20023;-72
2022/07/03 03:35:04;;;;;;;8.80;4.47;;;21.50;99.90;;;;;;5133048;27;20011;-64
2022/07/03 03:37:30;;;;;;;9.93;5.03;;;21.60;99.90;;;;;;5133740;27;20059;-71
2022/07/03 03:39:57;;;;;;;10.82;4.65;;;21.70;99.90;;;;;;5133586;27;20079;-72
2022/07/03 03:42:23;;;;;;;9.27;4.80;;;21.70;99.90;;;;;;5133334;27;20058;-72
2022/07/03 03:44:49;;;;;;;11.57;4.65;;;21.90;99.90;;;;;;5133399;27;20051;-70
2022/07/03 03:47:14;;;;;;;7.57;4.55;;;22.20;99.90;;;;;;5133317;27;20027;-72
2022/07/03 03:49:40;;;;;;;8.80;4.65;;;22.70;99.90;;;;;;5132092;27;20016;-72
2022/07/03 03:52:06;;;;;;;11.25;4.72;;;23.10;99.90;;;;;;5128497;27;20020;-71
2022/07/03 03:54:32;;;;;;;8.63;4.10;;;23.60;99.90;;;;;;5127816;27;20023;-71
2022/07/03 03:57:19;;;;;;;7.15;4.55;;;23.90;99.90;;;;;;5116764;27;20472;-71
2022/07/03 03:59:45;;;;;;;7.28;4.13;;;24.10;99.90;;;;;;5131979;27;20015;-71
2022/07/03 04:02:12;;;;;;;7.10;4.13;;;24.40;99.90;;;;;;5118810;27;20106;-72
2022/07/03 04:04:37;;;;;;;9.82;4.07;;;24.80;99.90;;;;;;5133145;27;20158;-72
2022/07/03 04:07:04;;;;;;;6.85;3.83;;;25.10;99.90;;;;;;5132092;27;20066;-63
2022/07/03 04:09:30;;;;;;;7.38;4.30;;;;;;;;;;5122851;27;20035;-71
2022/07/03 04:11:56;;;;;;;9.07;3.83;;;25.90;99.90;;;;;;5132284;27;20031;-72
2022/07/03 04:14:23;;;;;;;8.13;4.07;;;26.00;99.90;;;;;;5115195;27;20055;-71
2022/07/03 04:16:49;;;;;;;5.82;3.47;;;;;;;;;;5132270;27;20066;-66
2022/07/03 04:19:15;;;;;;;6.28;3.80;;;26.00;99.90;;;;;;5132713;27;20035;-71
2022/07/03 04:21:40;;;;;;;7.00;3.85;;;25.60;99.90;;;;;;5132896;27;20023;-69
2022/07/03 04:24:06;;;;;;;7.80;3.80;;;25.30;99.90;;;;;;5132813;27;20030;-70
2022/07/03 04:26:32;;;;;;;8.13;3.67;;;25.50;99.90;;;;;;5132247;27;20102;-70
2022/07/03 04:28:58;;;;;;;8.98;4.38;;;25.60;99.90;;;;;;5132561;27;20034;-71
2022/07/03 04:31:24;;;;;;;6.57;4.55;;;25.50;99.90;;;;;;5132466;27;20043;-70
2022/07/03 04:33:50;;;;;;;11.38;4.38;;;25.40;99.90;;;;;;5129817;27;20057;-68
2022/07/03 04:36:16;;;;;;;9.40;4.50;;;25.50;99.90;;;;;;5126441;27;20042;-71
2022/07/03 04:38:43;;;;;;;7.70;4.10;;;25.80;99.90;;;;;;5130890;27;20019;-71
2022/07/03 04:41:09;;;;;;;6.57;4.00;;;25.80;99.90;;;;;;5131813;27;20058;-68
2022/07/03 04:43:36;;;;;;;7.63;4.57;;;26.10;99.90;;;;;;5127349;27;20023;-70
2022/07/03 04:46:03;;;;;;;7.20;4.07;;;26.80;99.90;;;;;;5129134;27;20030;-71
2022/07/03 04:48:29;;;;;;;10.95;4.32;;;26.40;99.90;;;;;;5131757;27;20711;-71
2022/07/03 04:50:56;;;;;;;8.27;4.30;;;26.10;99.90;;;;;;5131843;27;20076;-70
2022/07/03 04:53:21;;;;;;;10.75;4.18;;;25.70;99.90;;;;;;5131443;27;20023;-69
2022/07/03 04:55:47;;;;;;;6.05;4.15;;;25.70;99.90;;;;;;5117679;27;20032;-72
2022/07/03 04:58:13;;;;;;;8.93;3.80;;;25.90;99.90;;;;;;5110173;28;20107;-70
2022/07/03 05:00:40;;;;;;;9.07;4.07;;;26.00;99.90;;;;;;5110365;28;20030;-67
2022/07/03 05:03:07;;;;;;;10.25;3.75;;;25.60;99.90;;;;;;5112131;27;20030;-69
2022/07/03 05:05:33;;;;;;;14.02;4.47;;;25.00;99.90;;;;;;5107199;28;20651;-71
2022/07/03 05:08:00;;;;;;;10.05;4.80;;;25.00;99.90;;;;;;5108930;28;20031;-67
2022/07/03 05:10:26;;;;;;;8.15;4.38;;;25.20;99.90;;;;;;5110408;28;20046;-71
2022/07/03 05:12:52;;;;;;;10.68;4.20;;;25.20;99.90;;;;;;5127339;27;20047;-71
2022/07/03 05:15:19;;;;;;;7.97;4.03;;;;;;;;;;5130917;27;20038;-71
2022/07/03 05:17:45;;;;;;;8.93;4.43;;;24.90;99.90;;;;;;5126793;27;20022;-68
2022/07/03 05:20:24;;;;;;;10.52;4.07;;;24.80;99.90;;;;;;5120432;27;20027;-72
2022/07/03 05:22:54;;;;;;;7.30;3.97;;;24.90;99.90;;;;;;5128198;27;20083;-72
2022/07/03 05:25:20;;;;;;;6.43;3.85;;;25.20;99.90;;;;;;5132020;27;20019;-71
2022/07/03 05:27:47;;;;;;;8.40;3.78;;;25.20;99.90;;;;;;5128278;27;20096;-70
2022/07/03 05:30:13;;;;;;;9.57;4.70;;;25.20;99.90;;;;;;5130245;27;20046;-71
2022/07/03 05:32:39;;;;;;;9.27;4.45;;;25.30;99.90;;;;;;5132258;27;20039;-71
2022/07/03 05:35:06;;;;;;;7.68;4.22;;;25.20;99.90;;;;;;5131750;27;20437;-72
2022/07/03 05:37:31;;;;;;;10.93;4.35;;;25.40;99.90;;;;;;5118494;27;20583;-71
2022/07/03 05:39:57;;;;;;;13.55;4.60;;;25.50;99.90;;;;;;5130895;28;20055;-72
2022/07/03 05:42:23;;;;;;;8.63;4.70;;;25.20;99.90;;;;;;5131850;28;20055;-71
2022/07/03 05:44:49;;;;;;;6.68;4.20;;;25.30;99.90;;;;;;5121513;28;20031;-70
2022/07/03 05:47:15;;;;;;;7.35;4.30;;;25.30;99.90;;;;;;5132717;27;20034;-68
2022/07/03 05:49:40;;;;;;;6.43;3.80;;;25.50;99.90;;;;;;5135737;27;20110;-70
2022/07/03 05:52:06;;;;;;;7.97;4.40;;;25.80;99.90;;;;;;5135440;27;20485;-70
2022/07/03 05:54:32;;;;;;;7.07;4.22;;;26.00;99.90;;;;;;5135666;27;20019;-70
2022/07/03 05:56:58;;;;;;;8.60;4.18;;;25.90;99.90;;;;;;5135956;27;20034;-68
2022/07/03 05:59:24;;;;;;;8.60;3.90;;;26.10;99.90;;;;;;5135438;27;20027;-67
2022/07/03 06:01:50;;;;;;;9.75;4.30;;;26.00;99.90;;;;;;5135865;27;20126;-70
2022/07/03 06:04:16;;;;;;;8.13;4.60;;;26.00;99.90;;;;;;5135586;27;20455;-64
2022/07/03 06:06:42;;;;;;;7.35;4.22;;;25.90;99.90;;;;;;5127410;27;20461;-70
2022/07/03 06:09:08;;;;;;;8.93;5.20;;;26.10;99.90;;;;;;5130696;27;20031;-70
2022/07/03 06:11:33;;;;;;;8.90;4.28;;;26.20;99.90;;;;;;5134993;27;20122;-71
2022/07/03 06:13:59;;;;;;;12.35;4.20;;;26.50;99.90;;;;;;5134670;27;20043;-72
2022/07/03 06:16:25;;;;;;;7.30;4.00;;;26.60;99.90;;;;;;5133739;27;20082;-71
2022/07/03 06:18:51;;;;;;;11.07;5.18;;;26.60;99.70;;;;;;5115346;27;20031;-67
2022/07/03 06:21:17;;;;;;;6.45;4.20;;;26.70;99.90;;;;;;5122142;27;20015;-72
2022/07/03 06:23:43;;;;;;;7.03;4.80;;;26.70;99.20;;;;;;5133283;27;20151;-66
2022/07/03 06:26:08;;;;;;;12.35;4.43;;;26.50;99.90;;;;;;5133608;27;20027;-72
2022/07/03 06:28:34;;;;;;;9.00;4.05;;;26.80;99.40;;;;;;5118294;27;20978;-69
2022/07/03 06:31:00;;;;;;;5.78;4.13;;;27.10;99.90;;;;;;5127046;27;20035;-67
2022/07/03 06:33:26;;;;;;;7.22;4.13;;;27.30;99.90;;;;;;5122202;27;20031;-70
2022/07/03 06:35:52;;;;;;;7.00;4.10;;;26.90;96.60;;;;;;5134691;27;20043;-72
2022/07/03 06:38:17;;;;;;;6.43;4.15;;;26.70;99.90;;;;;;5120255;27;20015;-72
2022/07/03 06:40:43;;;;;;;9.80;4.97;;;27.30;98.20;;;;;;5110012;27;20051;-70
2022/07/03 06:43:09;;;;;;;8.35;4.05;;;27.30;95.80;;;;;;5117222;27;20018;-68
2022/07/03 06:45:35;;;;;;;8.70;4.40;;;27.40;99.10;;;;;;5133884;27;20381;-71
2022/07/03 06:48:01;;;;;;;7.70;4.50;;;27.70;96.70;;;;;;5126594;27;20106;-72
2022/07/03 06:50:27;;;;;;;11.88;5.07;;;27.70;95.00;;;;;;5125921;27;20035;-69
2022/07/03 06:52:52;;;;;;;7.32;4.22;;;27.90;96.20;;;;;;5133757;27;20185;-70
2022/07/03 06:55:18;;;;;;;8.13;4.50;;;28.40;99.90;;;;;;5133771;27;20034;-69
2022/07/03 06:57:44;;;;;;;6.18;4.15;;;28.40;99.90;;;;;;5133225;27;20053;-72
2022/07/03 07:00:10;;;;;;;9.43;4.50;;;28.60;97.60;;;;;;5133741;27;20011;-70
2022/07/03 07:02:37;;;;;;;5.68;4.20;;;;;;;;;;5130125;27;20030;-71
2022/07/03 07:05:05;;;;;;;7.90;4.63;;;28.80;93.70;;;;;;5132397;27;20015;-69
2022/07/03 07:07:31;;;;;;;8.02;5.13;;;28.80;94.50;;;;;;5132446;27;20031;-70
2022/07/03 07:09:57;;;;;;;9.02;4.82;;;28.80;94.30;;;;;;5133423;27;20469;-72
2022/07/03 07:12:23;;;;;;;8.63;4.75;;;29.20;92.00;;;;;;5122038;27;20023;-72
2022/07/03 07:14:48;;;;;;;5.90;3.85;;;29.30;91.60;;;;;;5119878;27;20024;-70
2022/07/03 07:17:15;;;;;;;6.18;3.80;;;;;;;;;;5122877;27;20028;-70
2022/07/03 07:19:40;;;;;;;6.65;3.83;;;29.90;90.00;;;;;;5111731;28;20042;-73
2022/07/03 07:22:07;;;;;;;8.75;3.83;;;;;;;;;;5133460;27;20016;-73
2022/07/03 07:24:32;;;;;;;6.95;4.13;;;30.20;91.30;;;;;;5134000;27;20023;-72
2022/07/03 07:27:00;;;;;;;6.47;4.32;;;;;;;;;;5134532;27;20023;-71
2022/07/03 07:29:25;;;;;;;7.38;3.90;;;30.30;85.90;;;;;;5134929;27;20023;-73
2022/07/03 07:31:51;;;;;;;7.40;4.10;;;30.30;88.00;;;;;;5134287;27;20076;-73
2022/07/03 07:34:17;;;;;;;8.13;4.05;;;30.10;89.00;;;;;;5135507;27;20027;-73
2022/07/03 07:36:43;;;;;;;7.95;3.65;;;;;;;;;;5134565;27;20019;-70
2022/07/03 07:39:09;;;;;;;8.73;4.57;;;30.50;90.10;;;;;;5134701;27;20102;-72
2022/07/03 07:41:36;;;;;;;7.45;4.28;;;30.20;91.00;;;;;;5134508;27;20047;-70
2022/07/03 07:44:02;;;;;;;15.20;4.47;;;29.90;96.70;;;;;;5134861;27;20381;-71
2022/07/03 07:46:29;;;;;;;7.85;4.07;;;30.10;98.20;;;;;;5132563;27;20114;-71
2022/07/03 07:48:55;;;;;;;6.25;3.58;;;30.40;97.40;;;;;;5131834;27;20015;-72
2022/07/03 07:51:21;;;;;;;6.38;3.92;;;;;;;;;;5133640;27;20035;-71
2022/07/03 07:53:47;;;;;;;6.00;3.88;;;30.70;92.20;;;;;;5134470;27;20084;-71
2022/07/03 07:56:13;;;;;;;16.27;4.25;;;31.20;94.70;;;;;;5134480;27;20077;-71
2022/07/03 07:58:39;;;;;;;8.02;3.63;;;31.30;95.20;;;;;;5134050;27;20031;-73
2022/07/03 08:06:33;;;;;;;12.13;4.55;;;30.90;94.70;;;;;;5134142;27;20540;-73
2022/07/03 08:08:59;;;;;;;7.95;4.32;;;30.90;93.50;;;;;;5118473;27;20115;-71
2022/07/03 08:11:25;;;;;;;8.82;3.88;;;31.10;90.10;;;;;;5131950;27;20039;-72
2022/07/03 08:13:51;;;;;;;10.68;4.28;;;31.10;93.30;;;;;;5134441;27;20027;-71
2022/07/03 08:16:17;;;;;;;18.02;4.25;;;31.20;94.10;;;;;;5133836;27;20031;-69
2022/07/03 08:18:43;;;;;;;5.82;3.47;;;30.90;93.60;;;;;;5134300;27;20023;-68
2022/07/03 08:21:09;;;;;;;9.05;3.80;;;31.20;93.50;;;;;;5133333;27;20027;-66
2022/07/03 08:23:35;;;;;;;7.68;4.22;;;31.10;93.90;;;;;;5134001;27;20141;-67
2022/07/03 08:26:01;;;;;;;7.30;3.53;;;30.90;95.40;;;;;;5133838;27;20027;-74
2022/07/03 08:28:28;;;;;;;7.22;3.75;;;31.30;93.00;;;;;;5131447;27;20012;-73
2022/07/03 08:30:54;;;;;;;6.40;3.42;;;31.60;81.90;;;;;;5134055;27;20226;-71
2022/07/03 08:33:19;;;;;;;5.35;3.38;;;31.50;83.10;;;;;;5133666;27;20157;-72
2022/07/03 08:35:45;;;;;;;6.50;3.90;;;31.50;80.90;;;;;;5133765;27;20019;-72
2022/07/03 08:38:11;;;;;;;6.47;3.38;;;31.80;81.10;;;;;;5133619;27;20047;-71
2022/07/03 08:40:39;;;;;;;8.00;3.53;;;31.40;81.60;;;;;;5132922;27;20107;-69
2022/07/03 08:43:05;;;;;;;5.18;3.28;;;31.30;83.40;;;;;;5123394;27;20027;-62
2022/07/03 08:45:34;;;;;;;6.40;3.17;;;31.60;82.70;;;;;;5133335;27;20141;-63
2022/07/03 08:48:07;;;;;;;8.88;3.88;;;31.50;82.20;;;;;;5118617;27;20019;-68
2022/07/03 08:50:34;;;;;;;6.30;3.50;;;31.50;81.30;;;;;;5116080;27;20542;-71
2022/07/03 08:53:02;;;;;;;5.95;3.03;;;31.80;81.40;;;;;;5130201;27;20026;-72
2022/07/03 08:55:29;;;;;;;7.20;3.38;;;31.80;79.70;;;;;;5125833;27;20042;-71
2022/07/03 08:57:58;;;;;;;7.60;3.63;;;31.60;83.90;;;;;;5129863;27;20051;-72
2022/07/03 09:00:26;;;;;;;5.07;3.13;;;32.10;85.80;;;;;;5118516;27;20381;-72
2022/07/03 09:02:52;;;;;;;11.18;3.45;;;32.10;80.70;;;;;;5133098;27;20025;-65
2022/07/03 09:05:18;;;;;;;4.80;3.33;;;32.10;81.70;;;;;;5132851;27;20031;-70
2022/07/03 09:07:46;;;;;;;9.23;3.95;;;32.10;85.10;;;;;;5133040;27;20477;-73
2022/07/03 09:10:14;;;;;;;9.02;3.95;;;32.00;82.60;;;;;;5131989;27;20035;-74
2022/07/03 09:12:42;;;;;;;9.52;3.92;;;31.80;87.30;;;;;;5132954;27;20023;-73
2022/07/03 09:15:09;;;;;;;6.22;3.72;;;31.80;85.80;;;;;;5132676;27;20019;-70
2022/07/03 09:17:36;;;;;;;17.27;4.05;;;31.80;82.80;;;;;;5132027;27;20019;-73
2022/07/03 09:20:05;;;;;;;7.93;3.00;;;31.80;84.60;;;;;;5124075;27;20386;-71
2022/07/03 09:22:33;;;;;;;6.75;3.33;;;31.80;82.00;;;;;;5126165;27;20484;-73
2022/07/03 09:25:16;;;;;;;9.38;3.47;;;31.80;80.70;;;;;;5132534;27;20022;-71
2022/07/03 09:27:50;;;;;;;6.75;3.10;;;31.20;79.90;;;;;;5132729;27;20031;-71
2022/07/03 09:30:17;;;;;;;8.95;3.83;;;31.50;77.00;;;;;;5131783;27;20039;-71
2022/07/03 09:32:48;;;;;;;8.38;3.15;;;31.80;79.50;;;;;;5132227;27;20106;-69
2022/07/03 09:35:21;;;;;;;8.13;3.72;;;31.80;86.70;;;;;;5132671;27;20050;-70
2022/07/03 09:38:01;;;;;;;8.60;3.50;;;32.00;87.10;;;;;;5118270;28;20058;-73
2022/07/03 09:40:51;;;;;;;12.02;4.57;;;32.40;87.50;;;;;;5118137;28;20051;-72
2022/07/03 09:43:25;;;;;;;5.88;3.45;;;32.20;80.00;;;;;;5118382;28;20051;-71
2022/07/03 09:46:03;;;;;;;7.07;3.17;;;31.90;79.30;;;;;;5116760;28;20027;-66
2022/07/03 09:48:40;;;;;;;5.85;3.63;;;31.80;79.30;;;;;;5131705;27;20035;-72
2022/07/03 09:51:23;;;;;;;6.70;3.72;;;31.90;81.50;;;;;;5131520;27;20177;-72
2022/07/03 09:54:03;;;;;;;8.32;4.38;;;31.80;84.20;;;;;;5132300;27;20038;-72
2022/07/03 09:56:38;;;;;;;8.70;3.38;;;31.90;82.30;;;;;;5118391;28;20381;-72
2022/07/03 09:59:12;;;;;;;6.45;3.92;;;31.90;83.30;;;;;;5131818;27;20027;-73
2022/07/03 10:01:42;;;;;;;5.68;3.45;;;32.00;87.80;;;;;;5132627;27;20061;-73
2022/07/03 10:04:19;;;;;;;10.73;3.65;;;32.10;86.80;;;;;;5129849;27;20094;-72
2022/07/03 10:06:55;;;;;;;5.90;3.38;;;32.30;83.10;;;;;;5131469;27;20020;-65
2022/07/03 10:09:24;;;;;;;5.97;3.50;;;32.30;87.00;;;;;;5127096;28;20461;-72
2022/07/03 10:11:50;;;;;;;5.40;3.83;;;31.80;88.10;;;;;;5128488;27;20039;-71
2022/07/03 10:14:19;;;;;;;7.22;3.22;;;32.30;87.00;;;;;;5131405;27;20024;-72
2022/07/03 10:16:45;;;;;;;7.15;2.85;;;32.20;87.80;;;;;;5126331;27;20051;-71
2022/07/03 10:19:16;;;;;;;6.40;3.75;;;32.20;87.00;;;;;;5111127;28;20023;-71
2022/07/03 10:21:43;;;;;;;6.45;3.45;;;31.90;87.00;;;;;;5111121;28;20153;-72
2022/07/03 10:24:11;;;;;;;5.07;3.60;;;32.00;88.20;;;;;;5112175;28;20030;-73
2022/07/03 10:26:38;;;;;;;6.65;3.40;;;32.10;89.90;;;;;;5117491;28;20023;-73
2022/07/03 10:29:06;;;;;;;14.15;3.58;;;32.20;91.50;;;;;;5131579;27;20027;-70
2022/07/03 10:31:32;;;;;;;5.00;3.40;;;32.00;88.80;;;;;;5131566;27;20023;-73
2022/07/03 10:33:59;;;;;;;15.35;3.95;;;32.00;88.30;;;;;;5131821;27;20068;-72
2022/07/03 10:36:25;;;;;;;7.85;3.63;;;32.10;90.10;;;;;;5128140;27;20027;-71
2022/07/03 10:38:53;;;;;;;7.38;3.65;;;32.20;83.80;;;;;;5129866;27;20023;-71
2022/07/03 10:47:05;;;;;;;4.47;2.95;;;32.10;86.00;;;;;;5134750;27;20565;-71
2022/07/03 10:49:30;;;;;;;5.88;3.03;;;32.20;80.50;;;;;;5135434;27;20465;-70
2022/07/03 10:52:02;;;;;;;5.82;3.20;;;32.10;85.90;;;;;;5135411;27;20031;-71
2022/07/03 10:54:39;;;;;;;7.10;3.05;;;32.10;84.10;;;;;;5134497;27;20031;-69
2022/07/03 10:57:13;;;;;;;5.53;2.97;;;32.10;85.00;;;;;;5134953;27;20112;-71
2022/07/03 10:59:45;;;;;;;8.52;2.83;;;32.20;86.80;;;;;;5135142;27;20030;-69
2022/07/03 11:02:27;;;;;;;14.95;4.10;;;32.20;85.10;;;;;;5134872;27;20039;-69
2022/07/03 11:04:59;;;;;;;6.13;3.50;;;32.20;87.40;;;;;;5134809;27;20072;-69
2022/07/03 11:07:29;;;;;;;4.50;2.83;;;32.30;85.90;;;;;;5134834;27;20059;-65
2022/07/03 11:10:12;;;;;;;7.68;3.30;;;32.30;86.70;;;;;;5134322;27;20057;-70
2022/07/03 11:13:03;;;;;;;7.20;3.28;;;32.50;85.90;;;;;;5134397;27;20088;-70
2022/07/03 11:15:34;;;;;;;7.38;3.28;;;32.60;85.00;;;;;;5134281;27;20039;-72
2022/07/03 11:20:52;;;;;;;5.75;3.40;;;32.10;85.30;;;;;;5134621;27;20024;-72
2022/07/03 11:23:23;;;;;;;9.50;3.15;;;32.30;87.80;;;;;;5120310;27;20058;-71
2022/07/03 11:25:55;;;;;;;6.72;3.08;;;32.30;82.80;;;;;;5134627;27;20027;-70
2022/07/03 11:28:32;;;;;;;;;;;32.30;83.20;;;;;;5135105;27;20035;-71
2022/07/03 11:31:08;;;;;;;7.15;3.30;;;32.60;85.10;;;;;;5134058;27;20195;-71
2022/07/03 11:33:52;;;;;;;6.07;3.90;;;32.40;83.60;;;;;;5134415;27;20350;-69
2022/07/03 11:36:19;;;;;;;6.72;3.88;;;32.40;83.80;;;;;;5132848;27;20401;-76
2022/07/03 11:38:47;;;;;;;7.18;3.80;;;32.60;84.20;;;;;;5134153;27;20023;-70
2022/07/03 11:41:15;;;;;;;5.03;3.70;;;32.90;90.40;;;;;;5127997;27;20055;-71
2022/07/03 11:43:51;;;;;;;10.55;3.78;;;33.00;85.00;;;;;;5128327;27;20140;-71
2022/07/03 11:46:24;;;;;;;9.35;3.38;;;32.90;90.00;;;;;;5127891;27;20027;-71
2022/07/03 11:49:03;;;;;;;7.70;3.22;;;32.70;88.70;;;;;;5119864;27;20026;-72
2022/07/03 11:51:29;;;;;;;6.05;3.10;;;32.70;91.30;;;;;;5134298;27;20555;-67
2022/07/03 11:53:55;;;;;;;6.82;4.00;;;32.80;90.60;;;;;;5115341;27;20027;-71
2022/07/03 11:56:21;;;;;;;5.95;3.72;;;32.90;85.60;;;;;;5134154;27;20073;-71
2022/07/03 11:58:49;;;;;;;6.57;4.03;;;32.70;85.10;;;;;;5133799;27;20019;-67
2022/07/03 12:01:27;;;;;;;8.60;4.30;;;32.50;84.40;;;;;;5133930;27;20039;-70
2022/07/03 12:04:14;;;;;;;5.90;3.63;;;32.60;86.30;;;;;;5132216;27;20019;-71
2022/07/03 12:06:40;;;;;;;5.85;3.72;;;32.80;87.90;;;;;;5133777;27;20141;-73
2022/07/03 12:09:21;;;;;;;7.50;4.50;;;33.10;98.70;;;;;;5132878;27;20089;-73
2022/07/03 12:11:59;;;;;;;11.05;4.07;;;32.90;87.30;;;;;;5132871;27;20397;-72
2022/07/03 12:14:47;;;;;;;8.02;4.82;;;32.80;83.20;;;;;;5132376;27;20024;-73
2022/07/03 12:17:13;;;;;;;8.65;4.00;;;32.90;84.80;;;;;;5132253;27;20019;-72
2022/07/03 12:19:53;;;;;;;6.80;3.95;;;33.00;83.70;;;;;;5133560;27;20492;-72
2022/07/03 12:22:29;;;;;;;6.78;4.28;;;33.00;88.30;;;;;;5133112;27;20109;-64
2022/07/03 12:25:09;;;;;;;9.95;4.38;;;32.80;87.40;;;;;;5133306;27;20030;-75
2022/07/03 12:27:38;;;;;;;9.32;4.65;;;32.90;88.70;;;;;;5133453;27;20023;-76
2022/07/03 12:30:06;;;;;;;7.65;4.68;;;33.00;85.00;;;;;;5133581;27;20015;-75
2022/07/03 12:32:32;;;;;;;10.25;4.80;;;33.00;85.10;;;;;;5133698;27;20109;-76
2022/07/03 12:34:58;;;;;;;6.78;4.40;;;32.80;84.30;;;;;;5133644;27;20102;-74
2022/07/03 12:37:45;;;;;;;11.00;4.70;;;33.00;86.90;;;;;;5133403;27;20037;-75
2022/07/03 12:40:13;;;;;;;5.95;4.30;;;33.00;84.20;;;;;;5133081;27;20128;-74
2022/07/03 12:42:55;;;;;;;8.35;4.75;;;33.00;90.70;;;;;;5132988;27;20238;-74
2022/07/03 12:45:23;;;;;;;6.55;4.40;;;33.10;88.00;;;;;;5118807;27;20031;-71
2022/07/03 12:48:00;;;;;;;7.18;4.80;;;;;;;;;;5133310;27;20029;-68
2022/07/03 12:50:42;;;;;;;8.85;4.40;;;33.30;96.90;;;;;;5132596;27;20038;-71
2022/07/03 12:53:08;;;;;;;6.97;4.30;;;33.30;90.90;;;;;;5133130;27;20042;-70
2022/07/03 12:55:34;;;;;;;10.30;4.43;;;33.40;89.70;;;;;;5132553;27;20015;-74
2022/07/03 13:01:06;;;;;;;6.93;4.88;;;33.20;84.20;;;;;;5133302;27;20417;-74
2022/07/03 13:03:36;;;;;;;6.78;4.30;;;33.30;87.90;;;;;;5132733;27;20062;-69
2022/07/03 13:06:02;;;;;;;7.28;4.53;;;33.30;85.80;;;;;;5132699;27;20110;-75
2022/07/03 13:08:28;;;;;;;6.15;4.40;;;33.40;89.20;;;;;;5132387;27;20439;-72
2022/07/03 13:10:56;;;;;;;6.82;4.03;;;33.50;92.70;;;;;;5116714;27;20027;-74
2022/07/03 13:13:21;;;;;;;8.52;5.28;;;33.70;84.80;;;;;;5132312;27;20031;-71
2022/07/03 13:15:47;;;;;;;7.55;4.88;;;33.70;87.60;;;;;;5126638;27;20019;-75
2022/07/03 13:18:13;;;;;;;9.18;5.20;;;33.70;97.30;;;;;;5130483;27;20031;-65
2022/07/03 13:20:39;;;;;;;11.05;4.93;;;33.80;94.30;;;;;;5132099;27;20027;-68